sensor_id;sensor_type;location;lat;lon;timestamp;P1;durP1;ratioP1;P2;durP2;ratioP2
35434;SDS011;21556;55.782;37.528;2022-07-10T00:01:14;9.30;;;6.80;;
35434;SDS011;21556;55.782;37.528;2022-07-10T00:03:40;9.05;;;6.78;;
35434;SDS011;21556;55.782;37.528;2022-07-10T00:06:05;7.78;;;6.50;;
35434;SDS011;21556;55.782;37.528;2022-07-10T00:08:32;10.23;;;6.47;;
35434;SDS011;21556;55.782;37.528;2022-07-10T00:10:58;7.32;;;6.63;;
35434;SDS011;21556;55.782;37.528;2022-07-10T00:13:25;8.43;;;7.25;;
35434;SDS011;21556;55.782;37.528;2022-07-10T00:15:51;8.30;;;6.97;;
35434;SDS011;21556;55.782;37.528;2022-07-10T00:18:16;8.43;;;7.50;;
35434;SDS011;21556;55.782;37.528;2022-07-10T00:20:42;9.40;;;7.05;;
35434;SDS011;21556;55.782;37.528;2022-07-10T00:23:08;8.32;;;7.35;;
35434;SDS011;21556;55.782;37.528;2022-07-10T00:25:34;8.25;;;7.47;;
35434;SDS011;21556;55.782;37.528;2022-07-10T00:28:00;8.68;;;7.57;;
35434;SDS011;21556;55.782;37.528;2022-07-10T00:30:26;8.80;;;7.57;;
35434;SDS011;21556;55.782;37.528;2022-07-10T00:32:52;10.15;;;8.07;;
35434;SDS011;21556;55.782;37.528;2022-07-10T00:35:19;8.93;;;8.02;;
35434;SDS011;21556;55.782;37.528;2022-07-10T00:37:45;8.50;;;7.70;;
35434;SDS011;21556;55.782;37.528;2022-07-10T00:40:10;8.52;;;7.72;;
35434;SDS011;21556;55.782;37.528;2022-07-10T00:42:37;9.27;;;8.48;;
35434;SDS011;21556;55.782;37.528;2022-07-10T00:45:03;8.13;;;7.35;;
35434;SDS011;21556;55.782;37.528;2022-07-10T00:47:30;9.27;;;7.68;;
35434;SDS011;21556;55.782;37.528;2022-07-10T00:49:58;7.97;;;7.13;;
35434;SDS011;21556;55.782;37.528;2022-07-10T00:52:24;7.80;;;6.72;;
35434;SDS011;21556;55.782;37.528;2022-07-10T00:54:53;9.98;;;7.50;;
35434;SDS011;21556;55.782;37.528;2022-07-10T00:57:20;7.93;;;7.07;;
35434;SDS011;21556;55.782;37.528;2022-07-10T00:59:49;9.50;;;7.57;;
35434;SDS011;21556;55.782;37.528;2022-07-10T01:02:15;9.68;;;7.43;;
35434;SDS011;21556;55.782;37.528;2022-07-10T01:04:42;7.57;;;6.50;;
35434;SDS011;21556;55.782;37.528;2022-07-10T01:07:08;11.43;;;7.03;;
35434;SDS011;21556;55.782;37.528;2022-07-10T01:09:34;10.10;;;7.47;;
35434;SDS011;21556;55.782;37.528;2022-07-10T01:12:00;8.50;;;7.60;;
35434;SDS011;21556;55.782;37.528;2022-07-10T01:14:30;8.55;;;6.25;;
35434;SDS011;21556;55.782;37.528;2022-07-10T01:16:57;8.85;;;6.75;;
35434;SDS011;21556;55.782;37.528;2022-07-10T01:19:23;7.68;;;5.63;;
35434;SDS011;21556;55.782;37.528;2022-07-10T01:21:49;7.43;;;6.63;;
35434;SDS011;21556;55.782;37.528;2022-07-10T01:24:15;10.45;;;6.90;;
35434;SDS011;21556;55.782;37.528;2022-07-10T01:26:44;6.68;;;6.07;;
35434;SDS011;21556;55.782;37.528;2022-07-10T01:29:10;8.32;;;6.78;;
35434;SDS011;21556;55.782;37.528;2022-07-10T01:31:39;7.90;;;6.85;;
35434;SDS011;21556;55.782;37.528;2022-07-10T01:34:06;8.20;;;6.35;;
35434;SDS011;21556;55.782;37.528;2022-07-10T01:36:33;6.80;;;5.93;;
35434;SDS011;21556;55.782;37.528;2022-07-10T01:38:59;8.82;;;5.35;;
35434;SDS011;21556;55.782;37.528;2022-07-10T01:41:26;8.18;;;5.93;;
35434;SDS011;21556;55.782;37.528;2022-07-10T01:43:52;7.13;;;6.13;;
35434;SDS011;21556;55.782;37.528;2022-07-10T01:46:19;7.88;;;5.28;;
35434;SDS011;21556;55.782;37.528;2022-07-10T01:48:45;7.50;;;6.07;;
35434;SDS011;21556;55.782;37.528;2022-07-10T01:51:11;9.48;;;6.20;;
35434;SDS011;21556;55.782;37.528;2022-07-10T01:53:38;9.23;;;6.50;;
35434;SDS011;21556;55.782;37.528;2022-07-10T01:56:06;7.43;;;6.37;;
35434;SDS011;21556;55.782;37.528;2022-07-10T01:58:34;7.53;;;6.20;;
35434;SDS011;21556;55.782;37.528;2022-07-10T02:01:00;7.78;;;6.28;;
35434;SDS011;21556;55.782;37.528;2022-07-10T02:03:26;10.45;;;6.65;;
35434;SDS011;21556;55.782;37.528;2022-07-10T02:06:10;10.73;;;5.72;;
35434;SDS011;21556;55.782;37.528;2022-07-10T02:08:36;7.63;;;6.28;;
35434;SDS011;21556;55.782;37.528;2022-07-10T02:11:02;8.68;;;5.90;;
35434;SDS011;21556;55.782;37.528;2022-07-10T02:13:28;10.60;;;6.85;;
35434;SDS011;21556;55.782;37.528;2022-07-10T02:15:57;7.80;;;6.93;;
35434;SDS011;21556;55.782;37.528;2022-07-10T02:18:23;8.35;;;6.60;;
35434;SDS011;21556;55.782;37.528;2022-07-10T02:20:50;6.97;;;6.28;;
35434;SDS011;21556;55.782;37.528;2022-07-10T02:23:16;10.55;;;6.97;;
35434;SDS011;21556;55.782;37.528;2022-07-10T02:25:43;9.07;;;7.43;;
35434;SDS011;21556;55.782;37.528;2022-07-10T02:28:08;8.00;;;7.20;;
35434;SDS011;21556;55.782;37.528;2022-07-10T02:30:34;11.30;;;7.22;;
35434;SDS011;21556;55.782;37.528;2022-07-10T02:33:01;10.60;;;6.72;;
35434;SDS011;21556;55.782;37.528;2022-07-10T02:35:27;7.07;;;6.38;;
35434;SDS011;21556;55.782;37.528;2022-07-10T02:37:53;7.47;;;6.25;;
35434;SDS011;21556;55.782;37.528;2022-07-10T02:40:19;8.10;;;6.03;;
35434;SDS011;21556;55.782;37.528;2022-07-10T02:42:45;10.05;;;5.63;;
35434;SDS011;21556;55.782;37.528;2022-07-10T02:45:11;7.88;;;5.32;;
35434;SDS011;21556;55.782;37.528;2022-07-10T02:47:37;6.35;;;5.10;;
35434;SDS011;21556;55.782;37.528;2022-07-10T02:50:03;5.82;;;5.03;;
35434;SDS011;21556;55.782;37.528;2022-07-10T02:52:30;8.60;;;6.20;;
35434;SDS011;21556;55.782;37.528;2022-07-10T02:54:57;6.23;;;4.53;;
35434;SDS011;21556;55.782;37.528;2022-07-10T02:57:23;7.95;;;5.53;;
35434;SDS011;21556;55.782;37.528;2022-07-10T02:59:49;5.82;;;4.90;;
35434;SDS011;21556;55.782;37.528;2022-07-10T03:02:19;8.07;;;5.03;;
35434;SDS011;21556;55.782;37.528;2022-07-10T03:04:44;7.10;;;5.55;;
35434;SDS011;21556;55.782;37.528;2022-07-10T03:07:10;8.07;;;5.30;;
35434;SDS011;21556;55.782;37.528;2022-07-10T03:09:36;7.32;;;5.22;;
35434;SDS011;21556;55.782;37.528;2022-07-10T03:12:02;6.85;;;5.35;;
35434;SDS011;21556;55.782;37.528;2022-07-10T03:14:29;6.10;;;5.50;;
35434;SDS011;21556;55.782;37.528;2022-07-10T03:16:55;6.82;;;5.32;;
35434;SDS011;21556;55.782;37.528;2022-07-10T03:19:20;6.70;;;6.00;;
35434;SDS011;21556;55.782;37.528;2022-07-10T03:21:46;7.00;;;6.07;;
35434;SDS011;21556;55.782;37.528;2022-07-10T03:24:13;6.25;;;5.68;;
35434;SDS011;21556;55.782;37.528;2022-07-10T03:26:39;5.95;;;5.25;;
35434;SDS011;21556;55.782;37.528;2022-07-10T03:29:05;7.78;;;5.72;;
35434;SDS011;21556;55.782;37.528;2022-07-10T03:31:31;5.95;;;5.35;;
35434;SDS011;21556;55.782;37.528;2022-07-10T03:33:57;7.38;;;5.10;;
35434;SDS011;21556;55.782;37.528;2022-07-10T03:36:23;6.63;;;5.13;;
35434;SDS011;21556;55.782;37.528;2022-07-10T03:38:52;6.10;;;5.50;;
35434;SDS011;21556;55.782;37.528;2022-07-10T03:41:23;7.40;;;5.38;;
35434;SDS011;21556;55.782;37.528;2022-07-10T03:43:48;8.65;;;5.28;;
35434;SDS011;21556;55.782;37.528;2022-07-10T03:46:14;8.38;;;5.22;;
35434;SDS011;21556;55.782;37.528;2022-07-10T03:48:40;12.00;;;5.18;;
35434;SDS011;21556;55.782;37.528;2022-07-10T03:51:07;8.63;;;5.70;;
35434;SDS011;21556;55.782;37.528;2022-07-10T03:53:33;7.57;;;5.35;;
35434;SDS011;21556;55.782;37.528;2022-07-10T03:55:58;6.22;;;5.28;;
35434;SDS011;21556;55.782;37.528;2022-07-10T03:58:26;9.07;;;6.07;;
35434;SDS011;21556;55.782;37.528;2022-07-10T04:00:52;7.93;;;5.97;;
35434;SDS011;21556;55.782;37.528;2022-07-10T04:03:18;7.75;;;6.03;;
35434;SDS011;21556;55.782;37.528;2022-07-10T04:05:44;8.27;;;6.20;;
35434;SDS011;21556;55.782;37.528;2022-07-10T04:08:09;11.93;;;6.38;;
35434;SDS011;21556;55.782;37.528;2022-07-10T04:10:36;7.35;;;5.90;;
35434;SDS011;21556;55.782;37.528;2022-07-10T04:13:02;7.32;;;6.47;;
35434;SDS011;21556;55.782;37.528;2022-07-10T04:15:28;11.40;;;6.00;;
35434;SDS011;21556;55.782;37.528;2022-07-10T04:17:54;10.73;;;6.70;;
35434;SDS011;21556;55.782;37.528;2022-07-10T04:20:20;9.70;;;5.97;;
35434;SDS011;21556;55.782;37.528;2022-07-10T04:22:46;7.95;;;5.35;;
35434;SDS011;21556;55.782;37.528;2022-07-10T04:25:12;7.72;;;5.53;;
35434;SDS011;21556;55.782;37.528;2022-07-10T04:27:39;9.50;;;5.88;;
35434;SDS011;21556;55.782;37.528;2022-07-10T04:30:05;10.68;;;5.82;;
35434;SDS011;21556;55.782;37.528;2022-07-10T04:32:32;9.93;;;5.38;;
35434;SDS011;21556;55.782;37.528;2022-07-10T04:34:57;8.63;;;5.68;;
35434;SDS011;21556;55.782;37.528;2022-07-10T04:37:24;8.88;;;6.10;;
35434;SDS011;21556;55.782;37.528;2022-07-10T04:39:50;6.70;;;5.00;;
35434;SDS011;21556;55.782;37.528;2022-07-10T04:42:16;8.32;;;6.03;;
35434;SDS011;21556;55.782;37.528;2022-07-10T04:44:42;8.50;;;5.88;;
35434;SDS011;21556;55.782;37.528;2022-07-10T04:47:07;8.38;;;5.72;;
35434;SDS011;21556;55.782;37.528;2022-07-10T04:49:33;8.48;;;6.10;;
35434;SDS011;21556;55.782;37.528;2022-07-10T04:51:59;8.75;;;6.35;;
35434;SDS011;21556;55.782;37.528;2022-07-10T04:54:26;9.32;;;5.82;;
35434;SDS011;21556;55.782;37.528;2022-07-10T04:56:52;10.00;;;6.30;;
35434;SDS011;21556;55.782;37.528;2022-07-10T04:59:19;9.50;;;6.47;;
35434;SDS011;21556;55.782;37.528;2022-07-10T05:01:45;7.45;;;5.82;;
35434;SDS011;21556;55.782;37.528;2022-07-10T05:04:11;9.32;;;6.10;;
35434;SDS011;21556;55.782;37.528;2022-07-10T05:06:37;7.93;;;5.80;;
35434;SDS011;21556;55.782;37.528;2022-07-10T05:09:03;7.03;;;6.28;;
35434;SDS011;21556;55.782;37.528;2022-07-10T05:11:29;9.07;;;6.00;;
35434;SDS011;21556;55.782;37.528;2022-07-10T05:13:57;10.07;;;6.70;;
35434;SDS011;21556;55.782;37.528;2022-07-10T05:16:23;8.07;;;6.32;;
35434;SDS011;21556;55.782;37.528;2022-07-10T05:18:49;9.20;;;6.25;;
35434;SDS011;21556;55.782;37.528;2022-07-10T05:21:15;8.77;;;6.25;;
35434;SDS011;21556;55.782;37.528;2022-07-10T05:23:41;7.93;;;6.32;;
35434;SDS011;21556;55.782;37.528;2022-07-10T05:26:07;8.25;;;6.32;;
35434;SDS011;21556;55.782;37.528;2022-07-10T05:28:33;9.27;;;6.05;;
35434;SDS011;21556;55.782;37.528;2022-07-10T05:30:59;7.72;;;5.97;;
35434;SDS011;21556;55.782;37.528;2022-07-10T05:33:25;8.52;;;6.85;;
35434;SDS011;21556;55.782;37.528;2022-07-10T05:35:54;7.53;;;6.78;;
35434;SDS011;21556;55.782;37.528;2022-07-10T05:38:24;6.80;;;6.10;;
35434;SDS011;21556;55.782;37.528;2022-07-10T05:40:50;8.10;;;6.65;;
35434;SDS011;21556;55.782;37.528;2022-07-10T05:43:18;11.05;;;6.75;;
35434;SDS011;21556;55.782;37.528;2022-07-10T05:45:44;9.63;;;7.00;;
35434;SDS011;21556;55.782;37.528;2022-07-10T05:48:10;7.82;;;7.03;;
35434;SDS011;21556;55.782;37.528;2022-07-10T05:50:37;8.77;;;7.88;;
35434;SDS011;21556;55.782;37.528;2022-07-10T05:53:03;8.27;;;7.47;;
35434;SDS011;21556;55.782;37.528;2022-07-10T05:55:30;9.73;;;7.35;;
35434;SDS011;21556;55.782;37.528;2022-07-10T05:57:56;7.55;;;6.80;;
35434;SDS011;21556;55.782;37.528;2022-07-10T06:00:22;8.32;;;7.50;;
35434;SDS011;21556;55.782;37.528;2022-07-10T06:02:49;10.63;;;7.25;;
35434;SDS011;21556;55.782;37.528;2022-07-10T06:05:15;8.45;;;7.55;;
35434;SDS011;21556;55.782;37.528;2022-07-10T06:07:41;10.82;;;8.18;;
35434;SDS011;21556;55.782;37.528;2022-07-10T06:10:07;12.40;;;9.00;;
35434;SDS011;21556;55.782;37.528;2022-07-10T06:12:33;9.73;;;8.40;;
35434;SDS011;21556;55.782;37.528;2022-07-10T06:14:59;8.48;;;7.65;;
35434;SDS011;21556;55.782;37.528;2022-07-10T06:17:25;12.52;;;8.27;;
35434;SDS011;21556;55.782;37.528;2022-07-10T06:19:50;10.60;;;8.05;;
35434;SDS011;21556;55.782;37.528;2022-07-10T06:22:17;9.60;;;8.57;;
35434;SDS011;21556;55.782;37.528;2022-07-10T06:25:08;8.30;;;7.45;;
35434;SDS011;21556;55.782;37.528;2022-07-10T06:27:36;8.93;;;8.02;;
35434;SDS011;21556;55.782;37.528;2022-07-10T06:30:02;11.82;;;8.65;;
35434;SDS011;21556;55.782;37.528;2022-07-10T06:32:29;10.60;;;8.35;;
35434;SDS011;21556;55.782;37.528;2022-07-10T06:34:56;11.38;;;8.65;;
35434;SDS011;21556;55.782;37.528;2022-07-10T06:37:22;16.20;;;8.88;;
35434;SDS011;21556;55.782;37.528;2022-07-10T06:39:48;9.00;;;8.10;;
35434;SDS011;21556;55.782;37.528;2022-07-10T06:42:14;9.90;;;8.85;;
35434;SDS011;21556;55.782;37.528;2022-07-10T06:44:45;12.63;;;8.50;;
35434;SDS011;21556;55.782;37.528;2022-07-10T06:47:11;10.95;;;8.95;;
35434;SDS011;21556;55.782;37.528;2022-07-10T06:49:57;14.10;;;9.20;;
35434;SDS011;21556;55.782;37.528;2022-07-10T06:52:23;15.20;;;10.10;;
35434;SDS011;21556;55.782;37.528;2022-07-10T06:54:50;11.50;;;10.18;;
35434;SDS011;21556;55.782;37.528;2022-07-10T06:57:16;14.75;;;9.52;;
35434;SDS011;21556;55.782;37.528;2022-07-10T06:59:46;11.32;;;10.15;;
35434;SDS011;21556;55.782;37.528;2022-07-10T07:02:12;12.70;;;9.82;;
35434;SDS011;21556;55.782;37.528;2022-07-10T07:04:46;12.65;;;10.48;;
35434;SDS011;21556;55.782;37.528;2022-07-10T07:07:13;11.13;;;8.75;;
35434;SDS011;21556;55.782;37.528;2022-07-10T07:09:40;12.93;;;8.80;;
35434;SDS011;21556;55.782;37.528;2022-07-10T07:12:09;11.00;;;9.07;;
35434;SDS011;21556;55.782;37.528;2022-07-10T07:14:35;9.88;;;8.75;;
35434;SDS011;21556;55.782;37.528;2022-07-10T07:17:01;10.82;;;8.82;;
35434;SDS011;21556;55.782;37.528;2022-07-10T07:19:31;9.93;;;8.25;;
35434;SDS011;21556;55.782;37.528;2022-07-10T07:35:55;10.23;;;7.95;;
35434;SDS011;21556;55.782;37.528;2022-07-10T07:39:36;9.57;;;6.80;;
35434;SDS011;21556;55.782;37.528;2022-07-10T07:42:43;8.95;;;6.80;;
35434;SDS011;21556;55.782;37.528;2022-07-10T07:45:55;8.95;;;7.88;;
35434;SDS011;21556;55.782;37.528;2022-07-10T07:51:24;11.73;;;7.50;;
35434;SDS011;21556;55.782;37.528;2022-07-10T07:53:51;9.23;;;7.20;;
35434;SDS011;21556;55.782;37.528;2022-07-10T07:56:20;8.98;;;8.15;;
35434;SDS011;21556;55.782;37.528;2022-07-10T07:58:48;11.13;;;7.82;;
35434;SDS011;21556;55.782;37.528;2022-07-10T08:03:44;9.07;;;7.53;;
35434;SDS011;21556;55.782;37.528;2022-07-10T08:07:35;8.07;;;7.28;;
35434;SDS011;21556;55.782;37.528;2022-07-10T08:10:35;8.95;;;6.95;;
35434;SDS011;21556;55.782;37.528;2022-07-10T08:14:25;11.25;;;8.40;;
35434;SDS011;21556;55.782;37.528;2022-07-10T08:20:53;8.95;;;7.63;;
35434;SDS011;21556;55.782;37.528;2022-07-10T08:24:32;8.05;;;7.22;;
35434;SDS011;21556;55.782;37.528;2022-07-10T08:31:16;10.52;;;8.02;;
35434;SDS011;21556;55.782;37.528;2022-07-10T08:34:44;10.10;;;8.40;;
35434;SDS011;21556;55.782;37.528;2022-07-10T08:37:10;10.07;;;8.55;;
35434;SDS011;21556;55.782;37.528;2022-07-10T08:39:36;10.50;;;8.73;;
35434;SDS011;21556;55.782;37.528;2022-07-10T08:42:04;9.90;;;8.93;;
35434;SDS011;21556;55.782;37.528;2022-07-10T08:46:58;13.80;;;8.27;;
35434;SDS011;21556;55.782;37.528;2022-07-10T08:49:27;11.50;;;8.40;;
35434;SDS011;21556;55.782;37.528;2022-07-10T08:54:23;22.25;;;20.13;;
35434;SDS011;21556;55.782;37.528;2022-07-10T08:56:53;10.20;;;9.20;;
35434;SDS011;21556;55.782;37.528;2022-07-10T08:59:20;9.65;;;8.23;;
35434;SDS011;21556;55.782;37.528;2022-07-10T09:01:47;13.57;;;9.68;;
35434;SDS011;21556;55.782;37.528;2022-07-10T09:04:17;12.80;;;8.60;;
35434;SDS011;21556;55.782;37.528;2022-07-10T09:06:44;11.55;;;9.05;;
35434;SDS011;21556;55.782;37.528;2022-07-10T09:09:10;8.95;;;8.15;;
35434;SDS011;21556;55.782;37.528;2022-07-10T09:11:40;13.02;;;8.32;;
35434;SDS011;21556;55.782;37.528;2022-07-10T09:14:08;10.90;;;7.95;;
35434;SDS011;21556;55.782;37.528;2022-07-10T09:16:38;10.32;;;7.40;;
35434;SDS011;21556;55.782;37.528;2022-07-10T09:19:15;5.97;;;5.45;;
35434;SDS011;21556;55.782;37.528;2022-07-10T09:21:52;7.10;;;6.40;;
35434;SDS011;21556;55.782;37.528;2022-07-10T09:24:20;7.50;;;5.43;;
35434;SDS011;21556;55.782;37.528;2022-07-10T09:26:59;6.70;;;5.95;;
35434;SDS011;21556;55.782;37.528;2022-07-10T09:29:26;6.50;;;5.90;;
35434;SDS011;21556;55.782;37.528;2022-07-10T09:31:53;6.93;;;5.50;;
35434;SDS011;21556;55.782;37.528;2022-07-10T09:34:40;9.63;;;5.07;;
35434;SDS011;21556;55.782;37.528;2022-07-10T09:40:04;6.80;;;4.53;;
35434;SDS011;21556;55.782;37.528;2022-07-10T09:42:33;7.25;;;5.10;;
35434;SDS011;21556;55.782;37.528;2022-07-10T09:47:59;5.03;;;4.53;;
35434;SDS011;21556;55.782;37.528;2022-07-10T09:50:36;5.40;;;4.78;;
35434;SDS011;21556;55.782;37.528;2022-07-10T09:53:06;8.40;;;5.03;;
35434;SDS011;21556;55.782;37.528;2022-07-10T09:55:37;5.88;;;4.70;;
35434;SDS011;21556;55.782;37.528;2022-07-10T09:58:05;4.85;;;4.45;;
35434;SDS011;21556;55.782;37.528;2022-07-10T10:00:32;6.05;;;4.55;;
35434;SDS011;21556;55.782;37.528;2022-07-10T10:05:32;5.93;;;4.63;;
35434;SDS011;21556;55.782;37.528;2022-07-10T10:08:24;7.38;;;4.15;;
35434;SDS011;21556;55.782;37.528;2022-07-10T10:10:50;6.35;;;4.22;;
35434;SDS011;21556;55.782;37.528;2022-07-10T10:13:19;7.30;;;5.00;;
35434;SDS011;21556;55.782;37.528;2022-07-10T10:15:47;9.00;;;4.90;;
35434;SDS011;21556;55.782;37.528;2022-07-10T10:18:25;6.35;;;4.45;;
35434;SDS011;21556;55.782;37.528;2022-07-10T10:20:53;5.63;;;4.37;;
35434;SDS011;21556;55.782;37.528;2022-07-10T10:23:21;5.38;;;4.22;;
35434;SDS011;21556;55.782;37.528;2022-07-10T10:25:49;7.47;;;4.60;;
35434;SDS011;21556;55.782;37.528;2022-07-10T10:28:17;10.82;;;5.10;;
35434;SDS011;21556;55.782;37.528;2022-07-10T10:30:50;7.43;;;4.63;;
35434;SDS011;21556;55.782;37.528;2022-07-10T10:35:59;8.93;;;3.85;;
35434;SDS011;21556;55.782;37.528;2022-07-10T10:41:27;4.47;;;4.05;;
35434;SDS011;21556;55.782;37.528;2022-07-10T10:46:33;6.00;;;4.10;;
35434;SDS011;21556;55.782;37.528;2022-07-10T10:49:06;7.28;;;4.13;;
35434;SDS011;21556;55.782;37.528;2022-07-10T10:55:04;8.48;;;4.18;;
35434;SDS011;21556;55.782;37.528;2022-07-10T11:00:02;7.70;;;3.10;;
35434;SDS011;21556;55.782;37.528;2022-07-10T11:02:33;6.93;;;3.38;;
35434;SDS011;21556;55.782;37.528;2022-07-10T11:07:58;5.00;;;3.05;;
35434;SDS011;21556;55.782;37.528;2022-07-10T11:15:36;4.35;;;2.97;;
35434;SDS011;21556;55.782;37.528;2022-07-10T11:18:10;7.40;;;3.45;;
35434;SDS011;21556;55.782;37.528;2022-07-10T11:20:38;7.57;;;3.65;;
35434;SDS011;21556;55.782;37.528;2022-07-10T11:26:10;8.60;;;3.88;;
35434;SDS011;21556;55.782;37.528;2022-07-10T11:31:25;9.25;;;2.97;;
35434;SDS011;21556;55.782;37.528;2022-07-10T11:33:53;7.63;;;3.28;;
35434;SDS011;21556;55.782;37.528;2022-07-10T11:36:22;9.18;;;3.08;;
35434;SDS011;21556;55.782;37.528;2022-07-10T11:39:03;4.38;;;3.13;;
35434;SDS011;21556;55.782;37.528;2022-07-10T11:41:34;5.93;;;3.20;;
35434;SDS011;21556;55.782;37.528;2022-07-10T11:44:12;6.07;;;3.17;;
35434;SDS011;21556;55.782;37.528;2022-07-10T11:46:44;7.35;;;3.35;;
35434;SDS011;21556;55.782;37.528;2022-07-10T11:49:13;7.80;;;3.50;;
35434;SDS011;21556;55.782;37.528;2022-07-10T11:51:40;4.45;;;3.10;;
35434;SDS011;21556;55.782;37.528;2022-07-10T11:54:09;9.07;;;3.53;;
35434;SDS011;21556;55.782;37.528;2022-07-10T11:56:38;8.73;;;3.10;;
35434;SDS011;21556;55.782;37.528;2022-07-10T11:59:13;5.60;;;3.20;;
35434;SDS011;21556;55.782;37.528;2022-07-10T12:01:41;5.32;;;3.45;;
35434;SDS011;21556;55.782;37.528;2022-07-10T12:04:08;7.15;;;3.05;;
35434;SDS011;21556;55.782;37.528;2022-07-10T12:06:36;6.03;;;3.83;;
35434;SDS011;21556;55.782;37.528;2022-07-10T12:11:30;8.00;;;3.27;;
35434;SDS011;21556;55.782;37.528;2022-07-10T12:14:18;6.78;;;3.15;;
35434;SDS011;21556;55.782;37.528;2022-07-10T12:16:44;7.45;;;3.13;;
35434;SDS011;21556;55.782;37.528;2022-07-10T12:19:13;6.50;;;3.80;;
35434;SDS011;21556;55.782;37.528;2022-07-10T12:21:54;5.00;;;3.03;;
35434;SDS011;21556;55.782;37.528;2022-07-10T12:24:20;6.47;;;3.63;;
35434;SDS011;21556;55.782;37.528;2022-07-10T12:26:46;5.40;;;3.63;;
35434;SDS011;21556;55.782;37.528;2022-07-10T12:31:50;7.35;;;3.80;;
35434;SDS011;21556;55.782;37.528;2022-07-10T12:34:32;4.75;;;3.50;;
35434;SDS011;21556;55.782;37.528;2022-07-10T12:37:11;5.93;;;3.35;;
35434;SDS011;21556;55.782;37.528;2022-07-10T12:39:45;9.05;;;3.58;;
35434;SDS011;21556;55.782;37.528;2022-07-10T12:42:23;6.55;;;3.88;;
35434;SDS011;21556;55.782;37.528;2022-07-10T12:45:11;10.60;;;3.45;;
35434;SDS011;21556;55.782;37.528;2022-07-10T12:47:46;5.00;;;3.25;;
35434;SDS011;21556;55.782;37.528;2022-07-10T12:50:15;8.48;;;3.40;;
35434;SDS011;21556;55.782;37.528;2022-07-10T12:52:42;7.43;;;3.25;;
35434;SDS011;21556;55.782;37.528;2022-07-10T12:55:14;5.10;;;2.95;;
35434;SDS011;21556;55.782;37.528;2022-07-10T13:00:30;4.80;;;2.95;;
35434;SDS011;21556;55.782;37.528;2022-07-10T13:03:03;3.83;;;3.38;;
35434;SDS011;21556;55.782;37.528;2022-07-10T13:05:43;5.35;;;3.80;;
35434;SDS011;21556;55.782;37.528;2022-07-10T13:08:21;4.68;;;3.28;;
35434;SDS011;21556;55.782;37.528;2022-07-10T13:10:52;6.78;;;3.20;;
35434;SDS011;21556;55.782;37.528;2022-07-10T13:13:20;9.60;;;3.45;;
35434;SDS011;21556;55.782;37.528;2022-07-10T13:15:53;5.65;;;3.25;;
35434;SDS011;21556;55.782;37.528;2022-07-10T13:20:49;6.90;;;3.63;;
35434;SDS011;21556;55.782;37.528;2022-07-10T13:23:17;10.95;;;3.17;;
35434;SDS011;21556;55.782;37.528;2022-07-10T13:25:55;7.25;;;3.13;;
35434;SDS011;21556;55.782;37.528;2022-07-10T13:28:22;6.50;;;3.20;;
35434;SDS011;21556;55.782;37.528;2022-07-10T13:30:48;7.13;;;3.30;;
35434;SDS011;21556;55.782;37.528;2022-07-10T13:33:14;5.75;;;3.08;;
35434;SDS011;21556;55.782;37.528;2022-07-10T13:35:40;8.73;;;2.97;;
35434;SDS011;21556;55.782;37.528;2022-07-10T13:38:07;3.35;;;3.00;;
35434;SDS011;21556;55.782;37.528;2022-07-10T13:40:34;10.02;;;3.15;;
35434;SDS011;21556;55.782;37.528;2022-07-10T13:43:02;7.43;;;3.75;;
35434;SDS011;21556;55.782;37.528;2022-07-10T13:45:29;6.15;;;3.00;;
35434;SDS011;21556;55.782;37.528;2022-07-10T13:48:02;6.35;;;3.22;;
35434;SDS011;21556;55.782;37.528;2022-07-10T13:50:30;6.32;;;2.78;;
35434;SDS011;21556;55.782;37.528;2022-07-10T13:53:15;4.80;;;2.95;;
35434;SDS011;21556;55.782;37.528;2022-07-10T13:55:42;7.03;;;3.35;;
35434;SDS011;21556;55.782;37.528;2022-07-10T13:58:08;7.60;;;3.28;;
35434;SDS011;21556;55.782;37.528;2022-07-10T14:00:35;4.63;;;2.60;;
35434;SDS011;21556;55.782;37.528;2022-07-10T14:03:03;6.05;;;3.17;;
35434;SDS011;21556;55.782;37.528;2022-07-10T14:08:00;5.95;;;3.97;;
35434;SDS011;21556;55.782;37.528;2022-07-10T14:10:26;5.93;;;3.72;;
35434;SDS011;21556;55.782;37.528;2022-07-10T14:12:53;4.88;;;3.33;;
35434;SDS011;21556;55.782;37.528;2022-07-10T14:15:31;7.07;;;3.13;;
35434;SDS011;21556;55.782;37.528;2022-07-10T14:17:57;6.50;;;3.50;;
35434;SDS011;21556;55.782;37.528;2022-07-10T14:20:26;10.13;;;3.90;;
35434;SDS011;21556;55.782;37.528;2022-07-10T14:22:52;6.32;;;2.97;;
35434;SDS011;21556;55.782;37.528;2022-07-10T14:25:18;7.85;;;3.65;;
35434;SDS011;21556;55.782;37.528;2022-07-10T14:27:50;6.60;;;3.15;;
35434;SDS011;21556;55.782;37.528;2022-07-10T14:30:16;6.63;;;3.35;;
35434;SDS011;21556;55.782;37.528;2022-07-10T14:32:43;6.30;;;4.05;;
35434;SDS011;21556;55.782;37.528;2022-07-10T14:35:09;9.10;;;3.20;;
35434;SDS011;21556;55.782;37.528;2022-07-10T14:37:35;5.30;;;3.20;;
35434;SDS011;21556;55.782;37.528;2022-07-10T14:40:01;9.88;;;3.53;;
35434;SDS011;21556;55.782;37.528;2022-07-10T14:42:29;15.50;;;3.58;;
35434;SDS011;21556;55.782;37.528;2022-07-10T14:44:54;41.88;;;4.95;;
35434;SDS011;21556;55.782;37.528;2022-07-10T14:47:20;36.67;;;4.22;;
35434;SDS011;21556;55.782;37.528;2022-07-10T14:49:49;22.75;;;3.47;;
35434;SDS011;21556;55.782;37.528;2022-07-10T14:52:15;10.63;;;2.92;;
35434;SDS011;21556;55.782;37.528;2022-07-10T14:54:44;12.35;;;3.25;;
35434;SDS011;21556;55.782;37.528;2022-07-10T14:57:10;9.98;;;3.58;;
35434;SDS011;21556;55.782;37.528;2022-07-10T14:59:41;8.48;;;3.20;;
35434;SDS011;21556;55.782;37.528;2022-07-10T15:02:12;5.30;;;2.70;;
35434;SDS011;21556;55.782;37.528;2022-07-10T15:04:38;9.60;;;3.40;;
35434;SDS011;21556;55.782;37.528;2022-07-10T15:07:04;6.82;;;2.83;;
35434;SDS011;21556;55.782;37.528;2022-07-10T15:09:30;7.75;;;3.10;;
35434;SDS011;21556;55.782;37.528;2022-07-10T15:11:56;6.25;;;2.97;;
35434;SDS011;21556;55.782;37.528;2022-07-10T15:14:33;5.63;;;3.03;;
35434;SDS011;21556;55.782;37.528;2022-07-10T15:19:57;5.93;;;2.30;;
35434;SDS011;21556;55.782;37.528;2022-07-10T15:22:23;6.95;;;2.47;;
35434;SDS011;21556;55.782;37.528;2022-07-10T15:24:57;4.00;;;1.80;;
35434;SDS011;21556;55.782;37.528;2022-07-10T15:27:57;6.03;;;2.22;;
35434;SDS011;21556;55.782;37.528;2022-07-10T15:30:16;5.18;;;2.70;;
35434;SDS011;21556;55.782;37.528;2022-07-10T15:32:42;3.70;;;2.25;;
35434;SDS011;21556;55.782;37.528;2022-07-10T15:35:08;4.05;;;2.45;;
35434;SDS011;21556;55.782;37.528;2022-07-10T15:37:34;6.45;;;2.78;;
35434;SDS011;21556;55.782;37.528;2022-07-10T15:40:01;5.68;;;2.83;;
35434;SDS011;21556;55.782;37.528;2022-07-10T15:42:28;4.88;;;2.92;;
35434;SDS011;21556;55.782;37.528;2022-07-10T15:44:54;6.38;;;3.10;;
35434;SDS011;21556;55.782;37.528;2022-07-10T15:47:20;7.22;;;2.92;;
35434;SDS011;21556;55.782;37.528;2022-07-10T15:49:46;7.30;;;3.10;;
35434;SDS011;21556;55.782;37.528;2022-07-10T15:52:12;6.80;;;3.05;;
35434;SDS011;21556;55.782;37.528;2022-07-10T15:54:38;7.80;;;4.20;;
35434;SDS011;21556;55.782;37.528;2022-07-10T15:57:04;9.85;;;4.43;;
35434;SDS011;21556;55.782;37.528;2022-07-10T15:59:31;6.85;;;3.40;;
35434;SDS011;21556;55.782;37.528;2022-07-10T16:01:57;7.03;;;3.42;;
35434;SDS011;21556;55.782;37.528;2022-07-10T16:04:23;7.00;;;3.10;;
35434;SDS011;21556;55.782;37.528;2022-07-10T16:06:50;5.35;;;2.30;;
35434;SDS011;21556;55.782;37.528;2022-07-10T16:09:17;8.38;;;3.47;;